createdAt,value
2019-02-08T00:00:20.052Z,980.30
2019-02-08T00:01:19.940Z,980.21
2019-02-08T00:02:20.094Z,980.19
2019-02-08T00:03:19.917Z,980.20
2019-02-08T00:04:22.026Z,980.19
2019-02-08T00:05:19.887Z,980.13
2019-02-08T00:06:19.876Z,980.14
2019-02-08T00:07:19.877Z,980.08
2019-02-08T00:08:19.898Z,980.10
2019-02-08T00:09:19.871Z,980.02
2019-02-08T00:10:19.938Z,980.11
2019-02-08T00:11:19.819Z,980.15
2019-02-08T00:12:19.874Z,980.13
2019-02-08T00:13:19.804Z,980.20
2019-02-08T00:14:19.864Z,980.18
2019-02-08T00:15:19.783Z,980.15
2019-02-08T00:16:21.812Z,980.17
2019-02-08T00:17:19.754Z,980.20
2019-02-08T00:18:19.783Z,980.26
2019-02-08T00:19:19.752Z,980.29
2019-02-08T00:20:19.812Z,980.34
2019-02-08T00:21:19.714Z,980.33
2019-02-08T00:22:19.701Z,980.30
2019-02-08T00:23:26.719Z,980.31
2019-02-08T00:24:20.687Z,980.40
2019-02-08T00:25:19.755Z,980.32
2019-02-08T00:26:19.658Z,980.40
2019-02-08T00:27:19.644Z,980.33
2019-02-08T00:28:19.625Z,980.36
2019-02-08T00:29:19.664Z,980.42
2019-02-08T00:30:19.600Z,980.42
2019-02-08T00:31:21.605Z,980.39
2019-02-08T00:32:19.575Z,980.41
2019-02-08T00:33:19.586Z,980.37
2019-02-08T00:34:20.628Z,980.44
2019-02-08T00:35:19.537Z,980.38
2019-02-08T00:36:19.598Z,980.45
2019-02-08T00:37:19.518Z,980.36
2019-02-08T00:38:19.508Z,980.36
2019-02-08T00:39:19.609Z,980.41
2019-02-08T00:40:19.510Z,980.46
2019-02-08T00:41:19.540Z,980.40
2019-02-08T00:42:19.470Z,980.46
2019-02-08T00:43:19.460Z,980.50
2019-02-08T00:44:19.450Z,980.48
2019-02-08T00:45:20.493Z,980.48
2019-02-08T00:46:19.430Z,980.49
2019-02-08T00:47:19.462Z,980.55
2019-02-08T00:48:19.402Z,980.55
2019-02-08T00:49:19.502Z,980.53
2019-02-08T00:50:19.405Z,980.52
2019-02-08T00:51:19.432Z,980.58
2019-02-08T00:52:19.363Z,980.57
2019-02-08T00:53:19.463Z,980.57
2019-02-08T00:54:19.350Z,980.56
2019-02-08T00:55:20.374Z,980.61
2019-02-08T00:56:19.316Z,980.60
2019-02-08T00:57:19.335Z,980.65
2019-02-08T00:58:19.296Z,980.65
2019-02-08T00:59:19.286Z,980.73
2019-02-08T01:00:19.297Z,980.59
2019-02-08T01:01:19.306Z,980.61
2019-02-08T01:02:19.346Z,980.61
2019-02-08T01:03:19.347Z,980.65
2019-02-08T01:04:19.228Z,980.61
2019-02-08T01:05:19.318Z,980.60
2019-02-08T01:06:21.981Z,980.61
2019-02-08T01:07:19.219Z,980.58
2019-02-08T01:08:19.170Z,980.59
2019-02-08T01:09:19.170Z,980.51
2019-02-08T01:10:19.171Z,980.53
2019-02-08T01:11:19.190Z,980.54
2019-02-08T01:12:19.141Z,980.59
2019-02-08T01:13:20.142Z,980.56
2019-02-08T01:14:19.113Z,980.57
2019-02-08T01:15:19.203Z,980.57
2019-02-08T01:16:19.083Z,980.56
2019-02-08T01:17:19.097Z,980.54
2019-02-08T01:18:19.054Z,980.63
2019-02-08T01:19:19.134Z,980.61
2019-02-08T01:20:19.048Z,980.65
2019-02-08T01:21:19.065Z,980.72
2019-02-08T01:22:19.062Z,980.69
2019-02-08T01:23:20.036Z,980.65
2019-02-08T01:24:19.006Z,980.77
2019-02-08T01:25:19.016Z,980.84
2019-02-08T01:26:18.977Z,980.78
2019-02-08T01:27:18.987Z,980.86
2019-02-08T01:28:18.957Z,980.83
2019-02-08T01:29:20.048Z,980.88
2019-02-08T01:30:18.959Z,980.84
2019-02-08T01:31:19.979Z,980.83
2019-02-08T01:32:18.908Z,980.80
2019-02-08T01:33:18.990Z,980.81
2019-02-08T01:34:18.890Z,980.78
2019-02-08T01:35:18.980Z,980.78
2019-02-08T01:36:18.871Z,980.79
2019-02-08T01:37:18.861Z,980.80
2019-02-08T01:38:18.841Z,980.81
2019-02-08T01:39:19.921Z,980.85
2019-02-08T01:40:18.842Z,980.85
2019-02-08T01:41:18.832Z,980.86
2019-02-08T01:42:18.802Z,980.84
2019-02-08T01:43:18.873Z,980.87
2019-02-08T01:44:18.773Z,980.83
2019-02-08T01:45:18.858Z,980.84
2019-02-08T01:46:18.775Z,980.82
2019-02-08T01:47:18.746Z,980.76
2019-02-08T01:48:18.816Z,980.78
2019-02-08T01:49:18.707Z,980.81
2019-02-08T01:50:18.797Z,980.85
2019-02-08T01:51:18.693Z,980.82
2019-02-08T01:52:18.686Z,980.85
2019-02-08T01:53:18.747Z,980.86
2019-02-08T01:54:18.657Z,980.88
2019-02-08T01:55:18.727Z,980.87
2019-02-08T01:56:18.639Z,980.91
2019-02-08T01:57:18.619Z,980.91
2019-02-08T01:58:18.608Z,980.87
2019-02-08T01:59:18.660Z,980.83
2019-02-08T02:00:18.610Z,980.85
2019-02-08T02:01:19.630Z,980.82
2019-02-08T02:02:19.580Z,980.77
2019-02-08T02:03:18.551Z,980.79
2019-02-08T02:04:18.592Z,980.83
2019-02-08T02:05:18.562Z,980.82
2019-02-08T02:06:18.641Z,980.83
2019-02-08T02:07:18.512Z,980.86
2019-02-08T02:08:18.505Z,980.84
2019-02-08T02:09:18.542Z,980.84
2019-02-08T02:10:18.503Z,980.81
2019-02-08T02:11:19.494Z,980.80
2019-02-08T02:12:18.480Z,980.75
2019-02-08T02:13:18.444Z,980.74
2019-02-08T02:14:18.434Z,980.71
2019-02-08T02:15:18.500Z,980.68
2019-02-08T02:16:18.417Z,980.68
2019-02-08T02:17:18.485Z,980.62
2019-02-08T02:18:18.446Z,980.62
2019-02-08T02:19:18.389Z,980.60
2019-02-08T02:20:18.387Z,980.53
2019-02-08T02:21:18.377Z,980.53
2019-02-08T02:22:18.417Z,980.46
2019-02-08T02:23:18.338Z,980.55
2019-02-08T02:24:18.364Z,980.52
2019-02-08T02:25:18.318Z,980.48
2019-02-08T02:26:18.340Z,980.50
2019-02-08T02:27:18.290Z,980.51
2019-02-08T02:28:18.332Z,980.52
2019-02-08T02:29:18.292Z,980.51
2019-02-08T02:30:18.252Z,980.47
2019-02-08T02:31:18.271Z,980.46
2019-02-08T02:32:18.221Z,980.42
2019-02-08T02:33:18.262Z,980.43
2019-02-08T02:34:18.202Z,980.38
2019-02-08T02:35:18.304Z,980.44
2019-02-08T02:36:18.205Z,980.38
2019-02-08T02:37:18.234Z,980.44
2019-02-08T02:38:18.158Z,980.54
2019-02-08T02:39:18.148Z,980.53
2019-02-08T02:40:18.134Z,980.56
2019-02-08T02:41:18.256Z,980.59
2019-02-08T02:42:18.117Z,980.53
2019-02-08T02:43:18.145Z,980.57
2019-02-08T02:44:18.088Z,980.54
2019-02-08T02:45:18.077Z,980.54
2019-02-08T02:46:18.187Z,980.57
2019-02-08T02:47:18.068Z,980.59
2019-02-08T02:48:18.087Z,980.56
2019-02-08T02:49:18.050Z,980.59
2019-02-08T02:50:18.028Z,980.57
2019-02-08T02:51:18.040Z,980.60
2019-02-08T02:52:18.060Z,980.65
2019-02-08T02:53:18.002Z,980.61
2019-02-08T02:54:18.100Z,980.63
2019-02-08T02:55:18.060Z,980.59
2019-02-08T02:56:17.993Z,980.63
2019-02-08T02:57:18.001Z,980.67
2019-02-08T02:58:17.941Z,980.70
2019-02-08T02:59:18.031Z,980.61
2019-02-08T03:00:17.926Z,980.68
2019-02-08T03:01:17.974Z,980.65
2019-02-08T03:02:17.933Z,980.73
2019-02-08T03:03:17.890Z,980.71
2019-02-08T03:04:19.913Z,980.69
2019-02-08T03:05:17.864Z,980.69
2019-02-08T03:06:17.874Z,980.65
2019-02-08T03:07:17.855Z,980.67
2019-02-08T03:08:17.902Z,980.66
2019-02-08T03:09:17.805Z,980.72
2019-02-08T03:10:18.907Z,980.68
2019-02-08T03:11:17.888Z,980.66
2019-02-08T03:12:17.777Z,980.70
2019-02-08T03:13:17.777Z,980.74
2019-02-08T03:14:17.747Z,980.69
2019-02-08T03:15:19.760Z,980.72
2019-02-08T03:16:17.748Z,980.74
2019-02-08T03:17:17.748Z,980.76
2019-02-08T03:18:17.709Z,980.75
2019-02-08T03:19:18.809Z,980.67
2019-02-08T03:20:17.680Z,980.79
2019-02-08T03:21:17.770Z,980.76
2019-02-08T03:22:17.661Z,980.81
2019-02-08T03:23:19.719Z,980.75
2019-02-08T03:24:17.641Z,980.76
2019-02-08T03:25:17.702Z,980.81
2019-02-08T03:26:17.655Z,980.81
2019-02-08T03:27:17.614Z,980.83
2019-02-08T03:28:17.702Z,980.79
2019-02-08T03:29:17.594Z,980.80
2019-02-08T03:30:18.664Z,980.76
2019-02-08T03:31:17.596Z,980.81
2019-02-08T03:32:17.555Z,980.82
2019-02-08T03:33:17.551Z,980.82
2019-02-08T03:34:18.636Z,980.75
2019-02-08T03:35:17.526Z,980.77
2019-02-08T03:36:18.618Z,980.80
2019-02-08T03:37:17.507Z,980.78
2019-02-08T03:38:17.589Z,980.82
2019-02-08T03:39:17.477Z,980.81
2019-02-08T03:40:17.518Z,980.93
2019-02-08T03:41:17.479Z,980.83
2019-02-08T03:42:17.559Z,980.83
2019-02-08T03:43:17.438Z,980.92
2019-02-08T03:44:17.489Z,980.93
2019-02-08T03:45:17.410Z,980.89
2019-02-08T03:46:17.480Z,980.95
2019-02-08T03:47:17.390Z,980.95
2019-02-08T03:48:17.379Z,981.07
2019-02-08T03:49:17.371Z,980.94
2019-02-08T03:50:17.393Z,980.96
2019-02-08T03:51:17.365Z,981.07
2019-02-08T03:52:17.433Z,981.07
2019-02-08T03:53:17.312Z,981.11
2019-02-08T03:54:21.252Z,981.13
2019-02-08T03:55:17.292Z,981.10
2019-02-08T03:56:17.353Z,981.19
2019-02-08T03:57:17.263Z,981.02
2019-02-08T03:58:17.333Z,981.03
2019-02-08T03:59:17.244Z,981.09
2019-02-08T04:00:17.277Z,981.11
2019-02-08T04:01:17.255Z,981.07
2019-02-08T04:02:17.308Z,981.10
2019-02-08T04:03:17.197Z,981.08
2019-02-08T04:04:17.197Z,981.06
2019-02-08T04:05:17.209Z,981.05
2019-02-08T04:06:17.187Z,980.98
2019-02-08T04:07:17.256Z,981.10
2019-02-08T04:08:17.148Z,981.06
2019-02-08T04:09:17.138Z,981.02
2019-02-08T04:10:17.119Z,981.17
2019-02-08T04:11:17.168Z,981.13
2019-02-08T04:12:17.108Z,981.17
2019-02-08T04:13:17.160Z,981.06
2019-02-08T04:14:17.083Z,981.04
2019-02-08T04:15:17.071Z,981.07
2019-02-08T04:16:17.111Z,981.14
2019-02-08T04:17:17.051Z,981.07
2019-02-08T04:18:17.102Z,981.03
2019-02-08T04:19:17.032Z,981.01
2019-02-08T04:20:17.050Z,980.96
2019-02-08T04:21:17.054Z,980.97
2019-02-08T04:22:16.992Z,980.90
2019-02-08T04:23:17.047Z,980.92
2019-02-08T04:24:16.973Z,980.91
2019-02-08T04:25:16.964Z,980.92
2019-02-08T04:26:16.986Z,980.94
2019-02-08T04:27:18.044Z,980.99
2019-02-08T04:28:16.925Z,980.95
2019-02-08T04:29:16.947Z,980.99
2019-02-08T04:30:16.906Z,981.04
2019-02-08T04:31:16.977Z,981.05
2019-02-08T04:32:16.896Z,981.08
2019-02-08T04:33:16.919Z,981.03
2019-02-08T04:34:16.848Z,981.01
2019-02-08T04:35:16.947Z,980.97
2019-02-08T04:36:16.838Z,981.04
2019-02-08T04:37:16.929Z,981.00
2019-02-08T04:38:18.440Z,980.97
2019-02-08T04:39:16.819Z,980.99
2019-02-08T04:40:16.781Z,980.92
2019-02-08T04:41:16.770Z,980.90
2019-02-08T04:42:16.870Z,980.89
2019-02-08T04:43:16.750Z,980.88
2019-02-08T04:44:16.760Z,980.94
2019-02-08T04:45:16.722Z,981.03
2019-02-08T04:46:16.724Z,980.97
2019-02-08T04:47:16.723Z,980.98
2019-02-08T04:48:16.733Z,981.06
2019-02-08T04:49:16.684Z,981.09
2019-02-08T04:50:17.693Z,980.97
2019-02-08T04:51:16.666Z,980.96
2019-02-08T04:52:17.785Z,980.98
2019-02-08T04:53:16.636Z,980.97
2019-02-08T04:54:18.695Z,980.93
2019-02-08T04:55:16.627Z,981.00
2019-02-08T04:56:16.685Z,980.99
2019-02-08T04:57:16.627Z,980.93
2019-02-08T04:58:16.619Z,980.97
2019-02-08T04:59:16.582Z,980.96
2019-02-08T05:00:16.658Z,980.92
2019-02-08T05:01:16.559Z,980.90
2019-02-08T05:02:16.568Z,980.89
2019-02-08T05:03:16.539Z,980.86
2019-02-08T05:04:16.628Z,980.88
2019-02-08T05:05:16.510Z,980.85
2019-02-08T05:06:17.589Z,980.87
2019-02-08T05:07:16.510Z,980.97
2019-02-08T05:08:16.501Z,980.91
2019-02-08T05:09:16.461Z,980.93
2019-02-08T05:10:16.532Z,980.94
2019-02-08T05:11:16.442Z,980.93
2019-02-08T05:12:16.511Z,980.93
2019-02-08T05:13:17.455Z,980.98
2019-02-08T05:14:16.402Z,980.90
2019-02-08T05:15:16.476Z,980.89
2019-02-08T05:16:16.372Z,980.84
2019-02-08T05:17:16.443Z,980.82
2019-02-08T05:18:16.475Z,980.88
2019-02-08T05:19:16.346Z,980.86
2019-02-08T05:20:18.354Z,980.84
2019-02-08T05:21:16.315Z,980.85
2019-02-08T05:22:16.386Z,980.80
2019-02-08T05:23:16.303Z,980.84
2019-02-08T05:24:16.391Z,980.82
2019-02-08T05:25:16.290Z,980.71
2019-02-08T05:26:16.306Z,980.86
2019-02-08T05:27:16.281Z,980.83
2019-02-08T05:28:16.357Z,980.79
2019-02-08T05:29:16.305Z,980.78
2019-02-08T05:30:16.279Z,980.81
2019-02-08T05:31:16.219Z,980.80
2019-02-08T05:32:16.271Z,980.80
2019-02-08T05:33:16.190Z,980.81
2019-02-08T05:34:16.180Z,980.93
2019-02-08T05:35:16.232Z,980.93
2019-02-08T05:36:16.161Z,980.99
2019-02-08T05:37:16.212Z,980.92
2019-02-08T05:38:16.143Z,980.98
2019-02-08T05:39:16.122Z,980.86
2019-02-08T05:40:16.160Z,980.90
2019-02-08T05:41:16.132Z,980.86
2019-02-08T05:42:16.121Z,980.86
2019-02-08T05:43:16.175Z,980.82
2019-02-08T05:44:16.074Z,980.92
2019-02-08T05:45:16.105Z,980.83
2019-02-08T05:46:16.046Z,980.82
2019-02-08T05:47:17.118Z,980.82
2019-02-08T05:48:16.025Z,980.80
2019-02-08T05:49:16.077Z,980.85
2019-02-08T05:50:16.007Z,980.81
2019-02-08T05:51:16.018Z,980.77
2019-02-08T05:52:16.017Z,980.78
2019-02-08T05:53:16.047Z,980.84
2019-02-08T05:54:15.947Z,980.85
2019-02-08T05:55:15.950Z,980.86
2019-02-08T05:56:15.929Z,980.95
2019-02-08T05:57:15.958Z,980.92
2019-02-08T05:58:15.911Z,980.92
2019-02-08T05:59:15.961Z,980.93
2019-02-08T06:00:15.879Z,980.96
2019-02-08T06:01:15.891Z,980.85
2019-02-08T06:02:15.883Z,980.87
2019-02-08T06:03:15.921Z,980.89
2019-02-08T06:04:15.831Z,980.93
2019-02-08T06:05:16.883Z,980.93
2019-02-08T06:06:15.812Z,980.86
2019-02-08T06:07:16.863Z,980.83
2019-02-08T06:08:15.816Z,980.85
2019-02-08T06:09:15.834Z,980.86
2019-02-08T06:10:15.774Z,980.96
2019-02-08T06:11:15.767Z,981.01
2019-02-08T06:12:15.746Z,981.02
2019-02-08T06:13:15.856Z,981.11
2019-02-08T06:14:15.738Z,981.08
2019-02-08T06:15:15.747Z,981.15
2019-02-08T06:16:15.816Z,981.12
2019-02-08T06:17:15.702Z,981.13
2019-02-08T06:18:15.797Z,981.14
2019-02-08T06:19:15.678Z,981.11
2019-02-08T06:20:16.716Z,981.12
2019-02-08T06:21:15.648Z,981.12
2019-02-08T06:22:16.748Z,981.07
2019-02-08T06:23:15.651Z,981.02
2019-02-08T06:24:15.660Z,981.00
2019-02-08T06:25:15.610Z,981.02
2019-02-08T06:26:15.690Z,981.02
2019-02-08T06:27:15.581Z,981.06
2019-02-08T06:28:15.682Z,981.06
2019-02-08T06:29:15.563Z,981.07
2019-02-08T06:30:17.611Z,981.11
2019-02-08T06:31:15.542Z,981.10
2019-02-08T06:32:15.522Z,981.09
2019-02-08T06:33:15.532Z,981.10
2019-02-08T06:34:15.533Z,981.17
2019-02-08T06:35:15.483Z,981.22
2019-02-08T06:36:16.494Z,981.21
2019-02-08T06:37:15.463Z,981.26
2019-02-08T06:38:15.544Z,981.29
2019-02-08T06:39:15.435Z,981.31
2019-02-08T06:40:15.567Z,981.30
2019-02-08T06:41:15.416Z,981.31
2019-02-08T06:42:15.481Z,981.29
2019-02-08T06:43:15.408Z,981.28
2019-02-08T06:44:15.407Z,981.28
2019-02-08T06:45:15.367Z,981.26
2019-02-08T06:46:15.509Z,981.26
2019-02-08T06:47:15.350Z,981.25
2019-02-08T06:48:15.341Z,981.21
2019-02-08T06:49:15.361Z,981.25
2019-02-08T06:50:15.319Z,981.26
2019-02-08T06:51:15.434Z,981.24
2019-02-08T06:52:15.300Z,981.25
2019-02-08T06:53:15.290Z,981.26
2019-02-08T06:54:15.281Z,981.25
2019-02-08T06:55:15.371Z,981.22
2019-02-08T06:56:15.272Z,981.19
2019-02-08T06:57:15.301Z,981.18
2019-02-08T06:58:15.232Z,981.19
2019-02-08T06:59:15.233Z,981.23
2019-02-08T07:00:15.213Z,981.17
2019-02-08T07:01:15.326Z,981.29
2019-02-08T07:02:15.183Z,981.28
2019-02-08T07:03:16.224Z,981.28
2019-02-08T07:04:15.165Z,981.34
2019-02-08T07:05:15.244Z,981.35
2019-02-08T07:06:15.165Z,981.34
2019-02-08T07:07:15.175Z,981.31
2019-02-08T07:08:15.116Z,981.31
2019-02-08T07:09:15.237Z,981.30
2019-02-08T07:10:15.187Z,981.26
2019-02-08T07:11:15.109Z,981.28
2019-02-08T07:12:15.117Z,981.37
2019-02-08T07:13:15.057Z,981.25
2019-02-08T07:14:15.068Z,981.32
2019-02-08T07:15:15.029Z,981.35
2019-02-08T07:16:15.130Z,981.33
2019-02-08T07:17:15.009Z,981.32
2019-02-08T07:18:15.020Z,981.33
2019-02-08T07:19:14.980Z,981.29
2019-02-08T07:20:16.082Z,981.32
2019-02-08T07:21:14.995Z,981.24
2019-02-08T07:22:15.001Z,981.32
2019-02-08T07:23:14.941Z,981.35
2019-02-08T07:24:15.032Z,981.41
2019-02-08T07:25:18.672Z,981.37
2019-02-08T07:26:16.034Z,981.34
2019-02-08T07:27:14.895Z,981.43
2019-02-08T07:28:15.004Z,981.47
2019-02-08T07:29:14.874Z,981.50
2019-02-08T07:30:14.855Z,981.43
2019-02-08T07:31:14.868Z,981.47
2019-02-08T07:32:14.875Z,981.48
2019-02-08T07:33:14.825Z,981.53
2019-02-08T07:34:14.920Z,981.44
2019-02-08T07:35:14.819Z,981.54
2019-02-08T07:36:14.898Z,981.53
2019-02-08T07:37:14.787Z,981.55
2019-02-08T07:38:14.887Z,981.43
2019-02-08T07:39:14.759Z,981.42
2019-02-08T07:40:14.760Z,981.49
2019-02-08T07:41:14.758Z,981.53
2019-02-08T07:42:15.779Z,981.52
2019-02-08T07:43:14.720Z,981.51
2019-02-08T07:44:14.790Z,981.45
2019-02-08T07:45:14.700Z,981.49
2019-02-08T07:46:17.111Z,981.57
2019-02-08T07:47:14.693Z,981.55
2019-02-08T07:48:14.762Z,981.51
2019-02-08T07:49:14.666Z,981.68
2019-02-08T07:50:14.713Z,981.75
2019-02-08T07:51:14.644Z,981.76
2019-02-08T07:52:14.816Z,981.81
2019-02-08T07:53:14.594Z,981.73
2019-02-08T07:54:14.677Z,981.77
2019-02-08T07:55:14.676Z,981.78
2019-02-08T07:56:14.664Z,981.80
2019-02-08T07:57:14.675Z,981.76
2019-02-08T07:58:14.546Z,981.76
2019-02-08T07:59:14.615Z,981.80
2019-02-08T08:00:14.511Z,981.84
2019-02-08T08:01:14.596Z,981.82
2019-02-08T08:02:14.496Z,981.87
2019-02-08T08:03:14.579Z,981.79
2019-02-08T08:04:14.469Z,981.77
2019-02-08T08:05:15.538Z,981.79
2019-02-08T08:06:14.530Z,981.78
2019-02-08T08:07:14.439Z,981.87
2019-02-08T08:08:14.519Z,981.78
2019-02-08T08:09:14.411Z,981.80
2019-02-08T08:10:14.450Z,981.86
2019-02-08T08:11:14.464Z,981.93
2019-02-08T08:12:14.382Z,981.89
2019-02-08T08:13:15.481Z,981.86
2019-02-08T08:14:14.382Z,981.91
2019-02-08T08:15:14.392Z,981.81
2019-02-08T08:16:14.363Z,981.72
2019-02-08T08:17:14.423Z,981.73
2019-02-08T08:18:14.323Z,981.75
2019-02-08T08:19:15.889Z,981.75
2019-02-08T08:20:14.305Z,981.74
2019-02-08T08:21:14.355Z,981.78
2019-02-08T08:22:14.277Z,981.82
2019-02-08T08:23:14.352Z,981.77
2019-02-08T08:24:14.256Z,981.79
2019-02-08T08:25:14.276Z,981.80
2019-02-08T08:26:14.240Z,981.78
2019-02-08T08:27:14.232Z,981.78
2019-02-08T08:28:14.209Z,981.85
2019-02-08T08:29:15.268Z,981.78
2019-02-08T08:30:14.189Z,981.80
2019-02-08T08:31:14.289Z,981.81
2019-02-08T08:32:14.175Z,981.70
2019-02-08T08:33:14.210Z,981.75
2019-02-08T08:34:14.140Z,981.71
2019-02-08T08:35:14.150Z,981.71
2019-02-08T08:36:14.111Z,981.70
2019-02-08T08:37:14.231Z,981.64
2019-02-08T08:38:14.103Z,981.62
2019-02-08T08:39:14.123Z,981.68
2019-02-08T08:40:14.075Z,981.78
2019-02-08T08:41:14.175Z,981.80
2019-02-08T08:42:14.063Z,981.76
2019-02-08T08:43:15.161Z,981.77
2019-02-08T08:44:14.028Z,981.75
2019-02-08T08:45:14.033Z,981.84
2019-02-08T08:46:13.995Z,981.83
2019-02-08T08:47:14.115Z,981.79
2019-02-08T08:48:13.975Z,981.74
2019-02-08T08:49:13.956Z,981.80
2019-02-08T08:50:14.077Z,981.78
2019-02-08T08:51:13.925Z,981.76
2019-02-08T08:52:14.057Z,981.75
2019-02-08T08:53:13.928Z,981.70
2019-02-08T08:54:13.925Z,981.73
2019-02-08T08:55:13.898Z,981.71
2019-02-08T08:56:13.979Z,981.67
2019-02-08T08:57:13.912Z,981.71
2019-02-08T08:58:13.922Z,981.66
2019-02-08T08:59:13.870Z,981.74
2019-02-08T09:00:13.840Z,981.78
2019-02-08T09:01:15.871Z,981.76
2019-02-08T09:02:13.843Z,981.77
2019-02-08T09:03:13.862Z,981.72
2019-02-08T09:04:13.802Z,981.77
2019-02-08T09:05:13.793Z,981.72
2019-02-08T09:06:13.784Z,981.73
2019-02-08T09:07:16.358Z,981.68
2019-02-08T09:08:13.757Z,981.66
2019-02-08T09:09:13.765Z,981.71
2019-02-08T09:10:13.738Z,981.74
2019-02-08T09:11:13.705Z,981.77
2019-02-08T09:12:13.815Z,981.71
2019-02-08T09:13:14.801Z,981.66
2019-02-08T09:14:13.706Z,981.64
2019-02-08T09:15:13.678Z,981.68
2019-02-08T09:16:13.667Z,981.66
2019-02-08T09:17:13.677Z,981.67
2019-02-08T09:18:13.678Z,981.51
2019-02-08T09:19:13.628Z,981.62
2019-02-08T09:20:13.709Z,981.60
2019-02-08T09:21:13.614Z,981.59
2019-02-08T09:22:13.699Z,981.56
2019-02-08T09:23:14.742Z,981.51
2019-02-08T09:24:13.603Z,981.54
2019-02-08T09:25:13.561Z,981.56
2019-02-08T09:26:13.621Z,981.56
2019-02-08T09:27:13.659Z,981.60
2019-02-08T09:28:13.532Z,981.63
2019-02-08T09:29:13.915Z,981.59
2019-02-08T09:30:13.493Z,981.55
2019-02-08T09:31:15.603Z,981.57
2019-02-08T09:32:13.496Z,981.55
2019-02-08T09:33:13.494Z,981.58
2019-02-08T09:34:13.454Z,981.56
2019-02-08T09:35:13.525Z,981.53
2019-02-08T09:36:13.426Z,981.52
2019-02-08T09:37:15.529Z,981.58
2019-02-08T09:38:13.426Z,981.43
2019-02-08T09:39:13.397Z,981.45
2019-02-08T09:40:13.467Z,981.54
2019-02-08T09:41:13.379Z,981.57
2019-02-08T09:42:13.407Z,981.43
2019-02-08T09:43:14.538Z,981.42
2019-02-08T09:44:13.329Z,981.42
2019-02-08T09:45:14.734Z,981.45
2019-02-08T09:46:13.309Z,981.49
2019-02-08T09:47:13.350Z,981.46
2019-02-08T09:48:13.310Z,981.48
2019-02-08T09:49:13.287Z,981.47
2019-02-08T09:50:14.381Z,981.43
2019-02-08T09:51:13.271Z,981.44
2019-02-08T09:52:13.293Z,981.50
2019-02-08T09:53:13.273Z,981.47
2019-02-08T09:54:13.233Z,981.52
2019-02-08T09:55:13.224Z,981.32
2019-02-08T09:56:14.284Z,981.43
2019-02-08T09:57:13.205Z,981.38
2019-02-08T09:58:14.265Z,981.33
2019-02-08T09:59:13.162Z,981.27
2019-02-08T10:00:13.237Z,981.37
2019-02-08T10:01:13.145Z,981.30
2019-02-08T10:02:13.166Z,981.35
2019-02-08T10:03:13.156Z,981.26
2019-02-08T10:04:13.207Z,981.34
2019-02-08T10:05:13.169Z,981.35
2019-02-08T10:06:13.097Z,981.33
2019-02-08T10:07:15.148Z,981.32
2019-02-08T10:08:13.102Z,981.47
2019-02-08T10:09:13.139Z,981.34
2019-02-08T10:10:13.049Z,981.33
2019-02-08T10:11:13.080Z,981.34
2019-02-08T10:12:13.030Z,981.31
2019-02-08T10:13:14.081Z,981.26
2019-02-08T10:14:13.011Z,981.30
2019-02-08T10:15:13.052Z,981.39
2019-02-08T10:16:12.972Z,981.24
2019-02-08T10:17:12.982Z,981.29
2019-02-08T10:18:12.973Z,981.33
2019-02-08T10:19:13.023Z,981.24
2019-02-08T10:20:12.923Z,981.43
2019-02-08T10:21:12.909Z,981.24
2019-02-08T10:22:12.895Z,981.24
2019-02-08T10:23:13.096Z,981.20
2019-02-08T10:24:12.885Z,981.29
2019-02-08T10:25:12.926Z,981.23
2019-02-08T10:26:12.857Z,981.20
2019-02-08T10:27:12.956Z,981.18
2019-02-08T10:28:12.857Z,981.24
2019-02-08T10:29:12.907Z,981.31
2019-02-08T10:30:12.818Z,981.19
2019-02-08T10:31:12.839Z,981.17
2019-02-08T10:32:12.788Z,981.13
2019-02-08T10:33:17.109Z,981.14
2019-02-08T10:34:12.769Z,981.14
2019-02-08T10:35:14.859Z,981.18
2019-02-08T10:36:12.760Z,981.16
2019-02-08T10:37:12.742Z,981.22
2019-02-08T10:38:12.773Z,981.17
2019-02-08T10:39:12.781Z,981.15
2019-02-08T10:40:12.715Z,981.14
2019-02-08T10:41:12.722Z,981.21
2019-02-08T10:42:12.683Z,981.17
2019-02-08T10:43:12.713Z,981.18
2019-02-08T10:44:12.665Z,981.14
2019-02-08T10:45:12.684Z,981.17
2019-02-08T10:46:12.666Z,981.13
2019-02-08T10:47:13.646Z,981.08
2019-02-08T10:48:12.655Z,981.19
2019-02-08T10:49:12.606Z,981.20
2019-02-08T10:50:12.630Z,981.23
2019-02-08T10:51:12.587Z,981.22
2019-02-08T10:52:12.666Z,981.15
2019-02-08T10:53:12.597Z,981.16
2019-02-08T10:54:12.597Z,981.23
2019-02-08T10:55:12.538Z,981.15
2019-02-08T10:56:15.243Z,981.16
2019-02-08T10:57:12.572Z,981.05
2019-02-08T10:58:12.570Z,981.11
2019-02-08T10:59:12.520Z,981.17
2019-02-08T11:00:12.500Z,981.13
2019-02-08T11:01:12.462Z,981.19
2019-02-08T11:02:13.561Z,981.21
2019-02-08T11:03:12.452Z,981.18
2019-02-08T11:04:12.452Z,981.09
2019-02-08T11:05:12.412Z,981.02
2019-02-08T11:06:12.414Z,981.05
2019-02-08T11:07:12.394Z,981.02
2019-02-08T11:08:13.427Z,980.97
2019-02-08T11:09:12.394Z,981.01
2019-02-08T11:10:12.381Z,981.01
2019-02-08T11:11:12.454Z,980.93
2019-02-08T11:12:12.334Z,980.80
2019-02-08T11:13:12.405Z,980.75
2019-02-08T11:14:12.335Z,980.71
2019-02-08T11:15:12.298Z,980.67
2019-02-08T11:16:12.309Z,980.61
2019-02-08T11:17:13.378Z,980.61
2019-02-08T11:18:12.267Z,980.62
2019-02-08T11:19:12.351Z,980.58
2019-02-08T11:20:12.268Z,980.61
2019-02-08T11:21:12.349Z,980.57
2019-02-08T11:22:12.219Z,980.50
2019-02-08T11:23:12.270Z,980.58
2019-02-08T11:24:12.250Z,980.56
2019-02-08T11:25:12.310Z,980.54
2019-02-08T11:26:12.192Z,980.60
2019-02-08T11:27:12.181Z,980.70
2019-02-08T11:28:12.162Z,980.62
2019-02-08T11:29:12.232Z,980.67
2019-02-08T11:30:12.141Z,980.69
2019-02-08T11:31:12.134Z,980.74
2019-02-08T11:32:12.113Z,980.70
2019-02-08T11:33:12.159Z,980.64
2019-02-08T11:34:12.176Z,980.65
2019-02-08T11:35:12.184Z,980.65
2019-02-08T11:36:12.075Z,980.59
2019-02-08T11:37:12.125Z,980.60
2019-02-08T11:38:12.040Z,980.59
2019-02-08T11:39:12.066Z,980.62
2019-02-08T11:40:12.028Z,980.56
2019-02-08T11:41:12.098Z,980.49
2019-02-08T11:42:12.007Z,980.55
2019-02-08T11:43:12.048Z,980.54
2019-02-08T11:44:12.001Z,980.60
2019-02-08T11:45:12.068Z,980.50
2019-02-08T11:46:11.959Z,980.53
2019-02-08T11:47:11.954Z,980.56
2019-02-08T11:48:11.941Z,980.51
2019-02-08T11:49:11.963Z,980.52
2019-02-08T11:50:11.903Z,980.52
2019-02-08T11:51:11.974Z,980.52
2019-02-08T11:52:11.893Z,980.53
2019-02-08T11:53:11.902Z,980.56
2019-02-08T11:54:11.893Z,980.56
2019-02-08T11:55:11.945Z,980.51
2019-02-08T11:56:11.844Z,980.51
2019-02-08T11:57:11.834Z,980.44
2019-02-08T11:58:11.814Z,980.40
2019-02-08T11:59:11.856Z,980.50
2019-02-08T12:00:11.786Z,980.41
2019-02-08T12:01:11.786Z,980.46
2019-02-08T12:02:11.766Z,980.38
2019-02-08T12:03:11.769Z,980.35
2019-02-08T12:04:11.779Z,980.44
2019-02-08T12:05:11.817Z,980.36
2019-02-08T12:06:11.718Z,980.44
2019-02-08T12:07:11.758Z,980.39
2019-02-08T12:08:11.688Z,980.39
2019-02-08T12:09:11.719Z,980.26
2019-02-08T12:10:11.692Z,980.30
2019-02-08T12:11:11.670Z,980.19
2019-02-08T12:12:11.702Z,980.22
2019-02-08T12:13:11.641Z,980.27
2019-02-08T12:14:11.661Z,980.21
2019-02-08T12:15:11.632Z,980.18
2019-02-08T12:16:11.672Z,980.17
2019-02-08T12:17:11.602Z,980.13
2019-02-08T12:18:11.614Z,980.14
2019-02-08T12:19:11.603Z,980.15
2019-02-08T12:20:11.643Z,980.09
2019-02-08T12:21:11.564Z,980.14
2019-02-08T12:22:13.545Z,980.15
2019-02-08T12:23:11.535Z,980.05
2019-02-08T12:24:12.585Z,980.12
2019-02-08T12:25:11.515Z,980.03
2019-02-08T12:26:11.506Z,980.11
2019-02-08T12:27:11.487Z,980.02
2019-02-08T12:28:11.477Z,980.05